Time;durP1;ratioP1;P1;durP2;ratioP2;P2;SDS_P1;SDS_P2;PMS_P1;PMS_P2;Temp;Humidity;BMP_temperature;BMP_pressure;BME280_temperature;BME280_humidity;BME280_pressure;Samples;Min_cycle;Max_cycle;Signal;HPM_P1;HPM_P2
2021/12/27 00:01:15;;;;;;;5.25;3.13;;;2.00;99.90;;;;;;5059975;28;20462;-59
2021/12/27 00:03:41;;;;;;;7.13;3.55;;;2.10;99.90;;;;;;5062712;28;20041;-57
2021/12/27 00:06:09;;;;;;;5.38;3.45;;;2.00;99.90;;;;;;5062953;28;20067;-60
2021/12/27 00:08:42;;;;;;;6.93;3.40;;;2.00;99.90;;;;;;5058258;28;20102;-60
2021/12/27 00:11:09;;;;;;;5.18;3.25;;;2.10;99.90;;;;;;5061517;28;20772;-60
2021/12/27 00:13:35;;;;;;;6.95;3.90;;;2.10;99.90;;;;;;5064690;28;20069;-59
2021/12/27 00:16:01;;;;;;;8.27;4.32;;;2.10;99.90;;;;;;5061373;28;20071;-59
2021/12/27 00:18:27;;;;;;;6.40;3.28;;;2.00;99.90;;;;;;5064727;28;20037;-60
2021/12/27 00:20:52;;;;;;;4.32;2.88;;;2.00;99.90;;;;;;5054777;28;20044;-59
2021/12/27 00:23:18;;;;;;;4.70;3.10;;;2.10;99.90;;;;;;5063237;28;20037;-54
2021/12/27 00:25:44;;;;;;;5.65;3.10;;;2.10;99.90;;;;;;5055571;28;20060;-57
2021/12/27 00:28:09;;;;;;;5.63;3.60;;;2.10;99.90;;;;;;5061158;28;20056;-59
2021/12/27 00:30:35;;;;;;;5.85;3.60;;;2.10;99.90;;;;;;5048111;28;20404;-60
2021/12/27 00:33:01;;;;;;;3.92;2.53;;;2.10;99.90;;;;;;5059459;28;20153;-56
2021/12/27 00:35:29;;;;;;;4.95;3.38;;;2.10;99.90;;;;;;5062970;28;20535;-59
2021/12/27 00:37:55;;;;;;;5.45;3.15;;;2.10;99.90;;;;;;5059811;28;20051;-57
2021/12/27 00:40:20;;;;;;;4.57;2.80;;;2.10;99.90;;;;;;5062089;28;20036;-60
2021/12/27 00:42:46;;;;;;;6.10;3.28;;;2.10;99.90;;;;;;5056130;28;20041;-60
2021/12/27 00:45:12;;;;;;;4.20;2.73;;;2.20;99.90;;;;;;5060849;28;20029;-60
2021/12/27 00:47:38;;;;;;;4.85;2.80;;;2.20;99.90;;;;;;5052988;28;20033;-58
2021/12/27 00:50:05;;;;;;;5.32;3.35;;;2.20;99.90;;;;;;5063662;28;20037;-62
2021/12/27 00:52:32;;;;;;;5.00;3.03;;;2.10;99.90;;;;;;5050936;28;20048;-61
2021/12/27 00:54:59;;;;;;;4.35;2.70;;;2.10;99.90;;;;;;5063117;28;20512;-60
2021/12/27 00:57:25;;;;;;;4.85;2.58;;;2.10;99.90;;;;;;5057582;28;20101;-61
2021/12/27 00:59:50;;;;;;;4.07;2.40;;;2.10;99.90;;;;;;5061451;28;20419;-61
2021/12/27 01:02:16;;;;;;;3.60;2.38;;;2.10;99.90;;;;;;5056138;28;20040;-61
2021/12/27 01:04:42;;;;;;;4.50;2.30;;;2.20;99.90;;;;;;5058832;28;20036;-62
2021/12/27 01:07:08;;;;;;;2.63;1.77;;;2.20;99.90;;;;;;5056550;28;20044;-61
2021/12/27 01:09:55;;;;;;;3.80;2.40;;;2.20;99.90;;;;;;5060809;28;20036;-61
2021/12/27 01:17:45;;;;;;;2.70;1.80;;;2.20;99.90;;;;;;5057576;28;20079;-59
2021/12/27 01:20:15;;;;;;;2.55;1.52;;;2.20;99.90;;;;;;5057193;28;20037;-59
2021/12/27 01:22:40;;;;;;;3.28;2.22;;;2.20;99.90;;;;;;5056766;28;20056;-61
2021/12/27 01:25:08;;;;;;;3.72;2.40;;;2.20;99.90;;;;;;5064496;28;20037;-60
2021/12/27 01:27:34;;;;;;;3.22;2.00;;;2.20;99.90;;;;;;5057255;28;20036;-62
2021/12/27 01:29:59;;;;;;;3.45;2.00;;;2.10;99.90;;;;;;5061219;28;20400;-62
2021/12/27 01:32:29;;;;;;;3.80;2.17;;;2.10;99.90;;;;;;5056119;28;20061;-61
2021/12/27 01:34:56;;;;;;;4.00;2.22;;;2.00;99.90;;;;;;5057710;28;20045;-60
2021/12/27 01:37:22;;;;;;;3.45;2.00;;;2.00;99.90;;;;;;5055338;28;20048;-61
2021/12/27 01:39:48;;;;;;;7.15;3.20;;;2.00;99.90;;;;;;5056620;28;20037;-62
2021/12/27 01:42:13;;;;;;;3.38;2.10;;;2.00;99.90;;;;;;5054459;28;20051;-59
2021/12/27 01:44:40;;;;;;;3.40;2.13;;;1.90;99.90;;;;;;5063414;28;20509;-61
2021/12/27 01:47:09;;;;;;;3.63;1.83;;;1.90;99.90;;;;;;5053310;28;20159;-60
2021/12/27 01:49:35;;;;;;;3.33;2.03;;;2.00;99.90;;;;;;5055581;28;20083;-61
2021/12/27 01:52:00;;;;;;;3.83;2.40;;;2.00;99.90;;;;;;5052823;28;20044;-61
2021/12/27 01:54:26;;;;;;;5.60;2.22;;;2.00;99.90;;;;;;5066203;28;20039;-60
2021/12/27 01:56:52;;;;;;;5.05;2.58;;;2.00;99.90;;;;;;5059435;28;20496;-60
2021/12/27 01:59:18;;;;;;;3.53;2.13;;;1.90;99.90;;;;;;5061074;28;20047;-61
2021/12/27 02:01:44;;;;;;;3.58;2.28;;;2.00;99.90;;;;;;5051197;28;20049;-60
2021/12/27 02:04:10;;;;;;;3.22;1.98;;;2.10;99.90;;;;;;5066513;28;20060;-60
2021/12/27 02:06:36;;;;;;;3.40;1.75;;;2.00;99.90;;;;;;5053468;28;20036;-57
2021/12/27 02:09:04;;;;;;;2.75;1.90;;;2.10;99.90;;;;;;5059999;28;20626;-61
2021/12/27 02:11:34;;;;;;;3.17;1.88;;;2.10;99.90;;;;;;5051149;28;20041;-61
2021/12/27 02:14:05;;;;;;;2.65;1.90;;;2.10;99.90;;;;;;5059207;28;20052;-61
2021/12/27 02:16:32;;;;;;;2.38;1.70;;;2.10;99.90;;;;;;5046492;28;20044;-61
2021/12/27 02:18:57;;;;;;;2.60;1.67;;;2.10;99.90;;;;;;5054963;28;20041;-58
2021/12/27 02:21:24;;;;;;;2.25;1.50;;;2.00;99.90;;;;;;5051398;28;20412;-58
2021/12/27 02:23:53;;;;;;;2.10;1.50;;;2.10;99.90;;;;;;5059853;28;20098;-57
2021/12/27 02:26:19;;;;;;;1.67;1.17;;;2.10;99.90;;;;;;5044289;28;21090;-61
2021/12/27 02:28:46;;;;;;;2.17;1.52;;;2.10;99.90;;;;;;5059502;28;20515;-61
2021/12/27 02:31:13;;;;;;;1.45;0.95;;;2.20;99.90;;;;;;5051933;28;20055;-61
2021/12/27 02:33:40;;;;;;;1.20;1.05;;;2.20;99.90;;;;;;5058481;28;20040;-62
2021/12/27 02:36:07;;;;;;;1.85;1.10;;;2.20;99.90;;;;;;5056196;28;20551;-60
2021/12/27 02:38:36;;;;;;;2.72;1.30;;;2.20;99.90;;;;;;5059735;28;20035;-61
2021/12/27 02:41:02;;;;;;;1.92;1.05;;;2.20;99.90;;;;;;5052643;28;20043;-62
2021/12/27 02:43:30;;;;;;;2.03;1.10;;;2.20;99.90;;;;;;5055902;28;20112;-61
2021/12/27 02:46:05;;;;;;;1.30;1.00;;;2.30;99.90;;;;;;5053085;28;20068;-60
2021/12/27 02:48:44;;;;;;;2.65;1.25;;;2.20;99.90;;;;;;5055349;28;20707;-61
2021/12/27 02:51:10;;;;;;;2.03;1.30;;;2.20;99.90;;;;;;5049263;28;20387;-61
2021/12/27 02:53:36;;;;;;;1.75;1.08;;;2.20;99.90;;;;;;5058165;28;20070;-60
2021/12/27 02:56:04;;;;;;;1.95;1.20;;;2.20;99.90;;;;;;5058318;28;20431;-61
2021/12/27 02:58:30;;;;;;;1.50;1.00;;;2.20;99.90;;;;;;5053665;28;20589;-60
2021/12/27 03:01:08;;;;;;;2.33;1.10;;;2.20;99.90;;;;;;5054495;28;20032;-59
2021/12/27 03:03:35;;;;;;;2.03;1.13;;;2.20;99.90;;;;;;5059481;28;20036;-60
2021/12/27 03:06:00;;;;;;;1.23;0.90;;;2.20;99.90;;;;;;5059298;28;20048;-61
2021/12/27 03:08:27;;;;;;;1.52;1.10;;;2.30;99.90;;;;;;5061733;28;20032;-61
2021/12/27 03:10:59;;;;;;;1.15;0.70;;;2.30;99.90;;;;;;5060085;28;20581;-61
2021/12/27 03:13:30;;;;;;;1.10;0.85;;;2.20;99.90;;;;;;5058052;28;20036;-61
2021/12/27 03:15:58;;;;;;;1.52;1.23;;;2.20;99.90;;;;;;5042555;28;20062;-61
2021/12/27 03:18:25;;;;;;;1.30;0.93;;;2.30;99.90;;;;;;5051978;28;20054;-63
2021/12/27 03:20:52;;;;;;;1.50;1.00;;;2.30;99.90;;;;;;5051380;28;20045;-61
2021/12/27 03:23:17;;;;;;;1.25;0.80;;;2.20;99.90;;;;;;5053206;28;20045;-61
2021/12/27 03:25:43;;;;;;;1.15;0.75;;;2.30;99.90;;;;;;5051764;28;20103;-59
2021/12/27 03:28:09;;;;;;;1.42;0.88;;;2.30;99.90;;;;;;5051774;28;20554;-60
2021/12/27 03:30:36;;;;;;;1.40;0.95;;;2.30;99.90;;;;;;5053510;28;20051;-62
2021/12/27 03:33:04;;;;;;;1.75;1.15;;;2.20;99.90;;;;;;5058915;28;20036;-61
2021/12/27 03:35:35;;;;;;;2.00;1.13;;;2.20;99.90;;;;;;5056825;28;20724;-61
2021/12/27 03:38:04;;;;;;;1.35;0.93;;;2.20;99.90;;;;;;5050252;28;20051;-60
2021/12/27 03:40:30;;;;;;;1.13;0.88;;;2.10;99.90;;;;;;5048587;28;20739;-62
2021/12/27 03:42:56;;;;;;;1.40;1.02;;;2.20;99.90;;;;;;5055780;28;20127;-61
2021/12/27 03:45:44;;;;;;;1.23;0.88;;;2.20;99.90;;;;;;5047823;28;20110;-62
2021/12/27 03:48:11;;;;;;;2.63;0.77;;;2.20;99.90;;;;;;5047516;28;20075;-62
2021/12/27 03:50:38;;;;;;;1.77;0.98;;;2.20;99.90;;;;;;5054306;28;20047;-60
2021/12/27 03:53:05;;;;;;;1.10;0.82;;;2.10;99.90;;;;;;5049916;28;20029;-61
2021/12/27 03:55:31;;;;;;;1.25;1.02;;;2.20;99.90;;;;;;5063624;28;20107;-59
2021/12/27 03:58:07;;;;;;;2.15;1.17;;;2.20;99.90;;;;;;5053763;28;20036;-59
2021/12/27 04:01:35;;;;;;;2.13;1.33;;;2.20;99.90;;;;;;5053499;28;20140;-58
2021/12/27 04:03:30;;;;;;;1.77;1.15;;;2.30;99.90;;;;;;5044290;28;20049;-62
2021/12/27 04:05:57;;;;;;;1.50;1.00;;;2.40;99.90;;;;;;5049911;28;20084;-61
2021/12/27 04:08:23;;;;;;;1.30;0.80;;;2.40;99.90;;;;;;5060854;28;20041;-61
2021/12/27 04:10:49;;;;;;;1.20;0.82;;;2.40;99.90;;;;;;5058674;28;20082;-59
2021/12/27 04:13:18;;;;;;;1.63;1.15;;;2.40;99.90;;;;;;5055795;28;20037;-62
2021/12/27 04:15:44;;;;;;;3.90;1.70;;;2.40;99.90;;;;;;5055807;28;20041;-60
2021/12/27 04:18:11;;;;;;;2.33;1.58;;;2.30;99.90;;;;;;5061011;28;20028;-60
2021/12/27 04:20:37;;;;;;;3.78;1.70;;;2.30;99.90;;;;;;5056466;28;20095;-61
2021/12/27 04:23:03;;;;;;;3.30;1.92;;;2.30;99.90;;;;;;5054122;28;20044;-61
2021/12/27 04:25:29;;;;;;;1.70;1.20;;;2.40;99.90;;;;;;5054574;28;20044;-58
2021/12/27 04:27:55;;;;;;;1.08;0.90;;;2.40;99.90;;;;;;5050697;28;20033;-62
2021/12/27 04:30:21;;;;;;;1.55;1.20;;;2.30;99.90;;;;;;5051318;28;20032;-59
2021/12/27 04:32:48;;;;;;;2.22;1.10;;;2.20;99.90;;;;;;5059444;28;20045;-60
2021/12/27 04:35:15;;;;;;;1.90;1.52;;;2.20;99.90;;;;;;5060828;28;20041;-61
2021/12/27 04:37:41;;;;;;;2.80;1.95;;;2.20;99.90;;;;;;5052780;28;20095;-61
2021/12/27 04:40:10;;;;;;;2.63;1.60;;;2.20;99.90;;;;;;5060374;28;20033;-59
2021/12/27 04:42:37;;;;;;;2.92;1.52;;;2.20;99.90;;;;;;5057653;28;20818;-61
2021/12/27 04:45:04;;;;;;;2.08;1.60;;;2.20;99.90;;;;;;5060273;28;20044;-61
2021/12/27 04:47:29;;;;;;;2.47;1.38;;;2.20;99.90;;;;;;5055841;28;20053;-62
2021/12/27 04:49:56;;;;;;;2.13;1.40;;;2.30;99.90;;;;;;5048558;28;20174;-60
2021/12/27 04:52:21;;;;;;;2.22;1.40;;;2.20;99.90;;;;;;5058109;28;20070;-59
2021/12/27 04:54:47;;;;;;;2.85;1.40;;;2.10;99.90;;;;;;5057542;28;20125;-61
2021/12/27 04:57:12;;;;;;;1.35;1.20;;;2.20;99.90;;;;;;5059326;28;20063;-61
2021/12/27 04:59:38;;;;;;;2.97;1.20;;;2.20;99.90;;;;;;5057668;28;20044;-60
2021/12/27 05:02:04;;;;;;;3.35;1.60;;;2.30;99.90;;;;;;5050653;28;20032;-59
2021/12/27 05:04:30;;;;;;;2.00;1.38;;;2.30;99.90;;;;;;5064557;28;20525;-61
2021/12/27 05:06:56;;;;;;;4.35;1.20;;;2.20;99.90;;;;;;5048441;28;20040;-60
2021/12/27 05:09:21;;;;;;;1.27;1.00;;;2.30;99.90;;;;;;5058807;28;20044;-60
2021/12/27 05:11:47;;;;;;;1.88;1.17;;;2.20;99.90;;;;;;5052687;28;20431;-61
2021/12/27 05:14:13;;;;;;;2.03;1.05;;;2.30;99.90;;;;;;5065592;28;20674;-61
2021/12/27 05:16:38;;;;;;;2.13;1.10;;;2.30;99.90;;;;;;5052503;28;20072;-62
2021/12/27 05:19:04;;;;;;;1.75;1.25;;;2.20;99.90;;;;;;5052653;28;20040;-61
2021/12/27 05:21:30;;;;;;;1.58;1.02;;;2.30;99.90;;;;;;5049941;28;20076;-62
2021/12/27 05:23:55;;;;;;;1.48;0.98;;;2.30;99.90;;;;;;5060913;28;20547;-62
2021/12/27 05:26:21;;;;;;;2.05;1.33;;;2.30;99.90;;;;;;5055861;28;20136;-61
2021/12/27 05:28:47;;;;;;;1.88;1.15;;;2.30;99.90;;;;;;5063318;28;20044;-61
2021/12/27 05:31:12;;;;;;;1.98;1.30;;;2.30;99.90;;;;;;5051961;28;20037;-60
2021/12/27 05:33:38;;;;;;;1.80;1.30;;;2.40;99.90;;;;;;5061701;28;20040;-62
2021/12/27 05:36:04;;;;;;;2.47;1.48;;;2.40;99.90;;;;;;5055812;28;20239;-60
2021/12/27 05:38:30;;;;;;;4.25;2.40;;;2.30;99.90;;;;;;5059856;28;20040;-59
2021/12/27 05:40:56;;;;;;;3.53;2.15;;;2.30;99.90;;;;;;5048690;28;20037;-59
2021/12/27 05:43:23;;;;;;;3.90;2.00;;;2.30;99.90;;;;;;5061589;28;20052;-61
2021/12/27 05:45:50;;;;;;;3.63;2.28;;;2.30;99.90;;;;;;5055500;28;20072;-61
2021/12/27 05:48:16;;;;;;;2.35;1.60;;;2.30;99.90;;;;;;5058681;28;20043;-61
2021/12/27 05:50:42;;;;;;;2.75;1.90;;;2.30;99.90;;;;;;5056028;28;20111;-61
2021/12/27 05:53:09;;;;;;;2.03;1.50;;;2.30;99.90;;;;;;5057407;28;20033;-60
2021/12/27 05:55:34;;;;;;;4.00;1.85;;;2.30;99.90;;;;;;5053221;28;20043;-62
2021/12/27 05:58:01;;;;;;;4.13;1.42;;;2.30;99.90;;;;;;5051341;28;20041;-62
2021/12/27 06:00:27;;;;;;;3.60;2.30;;;2.40;99.90;;;;;;5054762;28;20124;-61
2021/12/27 06:02:54;;;;;;;3.72;2.10;;;2.40;99.90;;;;;;5047338;28;20052;-61
2021/12/27 06:05:22;;;;;;;2.55;1.85;;;2.40;99.90;;;;;;5056718;28;20077;-62
2021/12/27 06:07:47;;;;;;;3.40;2.30;;;2.30;99.90;;;;;;5052523;28;20099;-61
2021/12/27 06:10:13;;;;;;;3.30;1.70;;;2.30;99.90;;;;;;5059756;28;20032;-61
2021/12/27 06:12:40;;;;;;;2.75;2.00;;;2.30;99.90;;;;;;5055012;28;20048;-62
2021/12/27 06:15:06;;;;;;;4.03;2.25;;;2.40;99.90;;;;;;5050957;28;20040;-61
2021/12/27 06:17:33;;;;;;;2.90;1.67;;;2.30;99.90;;;;;;5054605;28;20613;-62
2021/12/27 06:20:00;;;;;;;4.18;2.50;;;2.30;99.90;;;;;;5057426;28;20078;-61
2021/12/27 06:22:28;;;;;;;3.80;2.45;;;2.40;99.90;;;;;;5053363;28;20047;-61
2021/12/27 06:24:54;;;;;;;3.70;2.40;;;2.40;99.90;;;;;;5055474;28;20041;-61
2021/12/27 06:27:19;;;;;;;3.28;2.08;;;2.40;99.90;;;;;;5052787;28;20512;-61
2021/12/27 06:29:45;;;;;;;3.72;1.98;;;2.40;99.90;;;;;;5056437;28;20074;-62
2021/12/27 06:32:13;;;;;;;2.90;2.05;;;2.50;99.90;;;;;;5048149;28;20036;-59
2021/12/27 06:34:40;;;;;;;3.30;1.85;;;2.50;99.90;;;;;;5050101;28;20499;-61
2021/12/27 06:37:06;;;;;;;2.75;1.75;;;2.50;99.90;;;;;;5049188;28;20048;-63
2021/12/27 06:39:32;;;;;;;5.47;1.83;;;2.60;99.90;;;;;;5051483;28;20041;-60
2021/12/27 06:41:58;;;;;;;3.45;1.90;;;2.60;99.90;;;;;;5052858;28;20039;-61
2021/12/27 06:44:23;;;;;;;2.60;1.50;;;2.50;99.90;;;;;;5057614;28;20036;-64
2021/12/27 06:46:49;;;;;;;2.00;1.40;;;2.50;99.90;;;;;;5055252;28;20045;-61
2021/12/27 06:49:15;;;;;;;2.25;1.30;;;2.50;99.90;;;;;;5055730;28;20550;-61
2021/12/27 06:51:40;;;;;;;1.80;1.27;;;2.50;99.90;;;;;;5052663;28;20048;-60
2021/12/27 06:54:06;;;;;;;3.25;1.10;;;2.60;99.90;;;;;;5058270;28;20404;-60
2021/12/27 06:56:32;;;;;;;1.70;1.17;;;2.50;99.90;;;;;;5050767;28;20093;-60
2021/12/27 06:58:59;;;;;;;1.35;0.90;;;2.50;99.90;;;;;;5053887;28;20040;-62
2021/12/27 07:01:24;;;;;;;3.60;1.35;;;2.50;99.90;;;;;;5048177;28;20045;-60
2021/12/27 07:03:50;;;;;;;4.07;1.70;;;2.50;99.90;;;;;;5061808;28;20037;-62
2021/12/27 07:06:16;;;;;;;2.92;1.48;;;2.50;99.90;;;;;;5048391;28;20579;-62
2021/12/27 07:08:42;;;;;;;1.77;1.30;;;2.50;99.90;;;;;;5056358;28;20405;-60
2021/12/27 07:11:07;;;;;;;1.30;1.13;;;2.60;99.90;;;;;;5052504;28;20035;-61
2021/12/27 07:13:33;;;;;;;1.10;0.85;;;2.60;99.90;;;;;;5060508;28;20117;-60
2021/12/27 07:15:59;;;;;;;2.65;1.20;;;2.60;99.90;;;;;;5050366;28;20036;-62
2021/12/27 07:18:24;;;;;;;2.10;1.40;;;2.50;99.90;;;;;;5059496;28;20427;-61
2021/12/27 07:20:51;;;;;;;3.88;1.48;;;2.50;99.90;;;;;;5052433;28;20029;-61
2021/12/27 07:23:17;;;;;;;2.67;1.50;;;2.60;99.90;;;;;;5038076;28;20484;-64
2021/12/27 07:25:43;;;;;;;2.05;1.20;;;2.50;99.90;;;;;;5052903;28;20522;-60
2021/12/27 07:28:09;;;;;;;1.42;1.02;;;2.50;99.90;;;;;;5061462;28;20082;-62
2021/12/27 07:30:35;;;;;;;1.98;1.20;;;2.40;99.90;;;;;;5057444;28;20079;-61
2021/12/27 07:33:00;;;;;;;1.23;0.90;;;2.40;99.90;;;;;;5061424;28;20373;-62
2021/12/27 07:35:27;;;;;;;1.17;0.90;;;2.40;99.90;;;;;;5059736;28;20033;-60
2021/12/27 07:37:53;;;;;;;1.05;0.80;;;2.40;99.90;;;;;;5064478;28;20041;-61
2021/12/27 07:40:19;;;;;;;2.80;1.02;;;2.40;99.90;;;;;;5058924;28;20051;-58
2021/12/27 07:42:44;;;;;;;2.97;1.15;;;2.40;99.90;;;;;;5059087;28;20542;-60
2021/12/27 07:45:10;;;;;;;2.63;1.13;;;2.40;99.90;;;;;;5066202;28;20041;-62
2021/12/27 07:47:36;;;;;;;2.33;1.00;;;2.30;99.90;;;;;;5056654;28;20037;-62
2021/12/27 07:50:04;;;;;;;1.80;1.27;;;2.30;99.90;;;;;;5064381;28;20040;-60
2021/12/27 07:52:29;;;;;;;3.80;1.00;;;2.30;99.90;;;;;;5057726;28;20090;-60
2021/12/27 07:54:55;;;;;;;1.35;0.80;;;2.30;99.90;;;;;;5068436;28;20036;-60
2021/12/27 07:57:21;;;;;;;0.90;0.70;;;2.30;99.90;;;;;;5053287;28;20045;-61
2021/12/27 07:59:47;;;;;;;1.70;1.00;;;2.50;99.90;;;;;;5062203;28;20052;-60
2021/12/27 08:02:14;;;;;;;1.98;1.30;;;2.50;99.90;;;;;;5057979;28;20071;-62
2021/12/27 08:04:40;;;;;;;1.85;1.10;;;2.60;99.90;;;;;;5064848;28;20047;-61
2021/12/27 08:07:06;;;;;;;3.03;1.52;;;2.70;99.90;;;;;;5055819;28;20105;-63
2021/12/27 08:09:32;;;;;;;2.45;1.65;;;2.70;99.90;;;;;;5058886;28;20041;-60
2021/12/27 08:11:57;;;;;;;1.48;0.90;;;2.70;99.90;;;;;;5058954;28;20457;-63
2021/12/27 08:14:23;;;;;;;1.10;0.80;;;2.80;99.90;;;;;;5061708;28;20726;-62
2021/12/27 08:16:48;;;;;;;1.10;0.90;;;2.80;99.90;;;;;;5057378;28;20389;-63
2021/12/27 08:19:14;;;;;;;1.30;0.90;;;2.90;99.90;;;;;;5062237;28;20029;-65
2021/12/27 08:21:40;;;;;;;2.33;1.30;;;2.90;99.90;;;;;;5054598;28;20201;-63
2021/12/27 08:24:07;;;;;;;1.38;1.05;;;2.90;99.90;;;;;;5063555;28;20043;-62
2021/12/27 08:26:34;;;;;;;2.28;1.25;;;3.00;99.90;;;;;;5057047;28;20040;-60
2021/12/27 08:29:01;;;;;;;1.02;0.90;;;3.00;99.90;;;;;;5053233;28;20508;-62
2021/12/27 08:31:27;;;;;;;3.20;0.93;;;3.00;99.90;;;;;;5056009;28;20155;-63
2021/12/27 08:33:53;;;;;;;1.80;1.10;;;3.00;99.90;;;;;;5053865;28;20472;-62
2021/12/27 08:36:19;;;;;;;0.80;0.77;;;3.00;99.90;;;;;;5055307;28;20037;-59
2021/12/27 08:38:48;;;;;;;3.58;1.10;;;3.10;99.90;;;;;;5058049;28;20033;-61
2021/12/27 08:41:14;;;;;;;2.05;1.05;;;3.20;99.90;;;;;;5057684;28;20045;-60
2021/12/27 08:43:40;;;;;;;2.03;1.15;;;3.20;99.90;;;;;;5054760;28;20041;-61
2021/12/27 08:46:05;;;;;;;1.60;1.15;;;3.30;99.90;;;;;;5055877;28;20045;-64
2021/12/27 08:48:31;;;;;;;1.63;0.98;;;3.40;99.90;;;;;;5063227;28;20041;-62
2021/12/27 08:50:57;;;;;;;1.67;1.10;;;3.40;99.90;;;;;;5059373;28;20120;-64
2021/12/27 08:53:24;;;;;;;2.45;1.13;;;3.50;99.90;;;;;;5059890;28;20055;-60
2021/12/27 08:55:49;;;;;;;2.75;1.58;;;3.50;99.90;;;;;;5061903;28;20089;-61
2021/12/27 08:58:16;;;;;;;5.43;1.45;;;3.50;99.90;;;;;;5048942;28;21358;-61
2021/12/27 09:00:41;;;;;;;3.95;1.48;;;3.50;99.90;;;;;;5058007;28;20040;-61
2021/12/27 09:03:07;;;;;;;2.30;1.45;;;3.60;99.90;;;;;;5058678;28;20147;-60
2021/12/27 09:05:33;;;;;;;2.80;1.25;;;3.60;99.90;;;;;;5053921;28;20539;-62
2021/12/27 09:07:58;;;;;;;3.47;1.30;;;3.60;99.90;;;;;;5055836;28;20040;-63
2021/12/27 09:10:24;;;;;;;4.13;1.05;;;3.70;99.90;;;;;;5054484;28;20051;-60
2021/12/27 09:12:50;;;;;;;;;;;3.80;99.90;;;;;;5051980;28;20115;-61
2021/12/27 09:15:16;;;;;;;1.85;1.08;;;3.90;99.90;;;;;;5048486;28;19920;-62
2021/12/27 09:17:42;;;;;;;6.82;1.10;;;3.90;99.90;;;;;;5051394;28;20051;-61
2021/12/27 09:20:08;;;;;;;4.10;1.40;;;3.90;99.90;;;;;;5056142;28;20123;-61
2021/12/27 09:22:34;;;;;;;5.88;1.17;;;4.00;99.90;;;;;;5052160;28;20047;-59
2021/12/27 09:24:59;;;;;;;4.75;1.48;;;4.10;99.90;;;;;;5052245;28;20401;-61
2021/12/27 09:27:25;;;;;;;2.13;1.00;;;4.20;99.90;;;;;;5054903;28;20040;-62
2021/12/27 09:29:51;;;;;;;2.03;1.00;;;4.40;99.90;;;;;;5063549;28;20043;-62
2021/12/27 09:32:17;;;;;;;2.10;0.90;;;4.60;99.90;;;;;;5054624;28;20488;-61
2021/12/27 09:34:42;;;;;;;5.50;1.10;;;4.70;99.90;;;;;;5061524;28;20044;-60
2021/12/27 09:37:08;;;;;;;7.55;2.15;;;4.70;99.90;;;;;;5051565;28;20423;-62
2021/12/27 09:39:34;;;;;;;8.38;5.15;;;4.60;99.90;;;;;;5061619;28;20119;-62
2021/12/27 09:42:01;;;;;;;14.68;7.43;;;4.60;99.90;;;;;;5052482;28;20651;-61
2021/12/27 09:44:27;;;;;;;8.30;3.88;;;4.60;99.90;;;;;;5060771;28;20068;-61
2021/12/27 09:46:53;;;;;;;3.78;2.15;;;4.60;99.90;;;;;;5051692;28;20079;-60
2021/12/27 09:49:20;;;;;;;1.77;1.20;;;4.60;99.90;;;;;;5059973;28;20057;-62
2021/12/27 09:51:47;;;;;;;3.85;0.90;;;4.70;99.90;;;;;;5055230;28;20118;-63
2021/12/27 09:54:13;;;;;;;4.97;1.17;;;4.70;99.90;;;;;;5061539;28;20040;-62
2021/12/27 09:56:40;;;;;;;1.58;1.02;;;4.60;99.90;;;;;;5055020;28;20049;-61
2021/12/27 09:59:06;;;;;;;2.38;1.17;;;4.70;99.90;;;;;;5050202;28;20038;-62
2021/12/27 10:01:32;;;;;;;1.70;0.95;;;4.80;99.90;;;;;;5031234;28;20037;-61
2021/12/27 10:03:59;;;;;;;1.42;1.00;;;4.80;99.90;;;;;;5051816;28;20043;-62
2021/12/27 10:06:28;;;;;;;1.70;0.90;;;4.90;99.90;;;;;;5054155;28;20045;-62
2021/12/27 10:08:57;;;;;;;4.47;1.38;;;5.00;99.90;;;;;;5061988;28;20050;-62
2021/12/27 10:11:30;;;;;;;2.00;1.13;;;5.00;99.90;;;;;;5054298;28;20125;-61
2021/12/27 10:14:10;;;;;;;1.85;1.20;;;5.10;99.90;;;;;;5062891;28;20494;-63
2021/12/27 10:16:48;;;;;;;2.70;1.90;;;5.10;99.90;;;;;;5054171;28;20041;-62
2021/12/27 10:19:16;;;;;;;4.57;2.45;;;5.00;99.90;;;;;;5060109;28;20041;-60
2021/12/27 10:21:43;;;;;;;5.00;1.88;;;4.90;99.90;;;;;;5050739;28;20804;-62
2021/12/27 10:24:21;;;;;;;4.65;2.80;;;4.80;99.90;;;;;;5048372;28;20038;-61
2021/12/27 10:26:49;;;;;;;4.70;2.72;;;4.70;99.90;;;;;;5056651;28;20087;-61
2021/12/27 10:29:18;;;;;;;3.65;2.42;;;4.60;99.90;;;;;;5060860;28;20137;-61
2021/12/27 10:32:20;;;;;;;4.72;2.53;;;4.50;99.90;;;;;;5049121;28;20036;-62
2021/12/27 10:34:51;;;;;;;3.10;2.08;;;4.40;99.90;;;;;;5040706;28;20039;-62
2021/12/27 10:37:23;;;;;;;4.25;2.22;;;4.40;99.90;;;;;;5047295;28;20654;-60
2021/12/27 10:39:50;;;;;;;3.63;2.33;;;4.30;99.90;;;;;;5047243;28;20125;-62
2021/12/27 10:42:20;;;;;;;3.15;2.03;;;4.20;99.90;;;;;;5047900;28;20396;-62
2021/12/27 10:44:48;;;;;;;2.55;1.77;;;4.10;99.90;;;;;;5060330;28;20380;-61
2021/12/27 10:47:35;;;;;;;3.22;1.85;;;4.20;99.90;;;;;;5058570;28;20047;-64
2021/12/27 10:50:25;;;;;;;4.63;2.10;;;4.20;99.90;;;;;;5049239;28;20052;-59
2021/12/27 10:52:53;;;;;;;3.45;2.20;;;4.30;99.90;;;;;;5035463;28;20049;-60
2021/12/27 10:55:31;;;;;;;5.28;2.28;;;4.30;99.90;;;;;;5059484;28;20312;-60
2021/12/27 10:58:23;;;;;;;1.58;0.80;;;4.40;99.90;;;;;;5055084;28;20029;-60
2021/12/27 11:01:03;;;;;;;0.55;0.47;;;4.60;99.90;;;;;;5054209;28;20041;-60
2021/12/27 11:03:41;;;;;;;0.70;0.70;;;4.70;99.90;;;;;;5052219;28;20081;-61
2021/12/27 11:06:08;;;;;;;1.35;1.02;;;4.70;99.90;;;;;;5059474;28;20072;-61
2021/12/27 11:08:36;;;;;;;5.15;1.33;;;4.70;99.90;;;;;;5052450;28;20045;-62
2021/12/27 11:11:03;;;;;;;1.30;0.60;;;4.80;99.90;;;;;;5033784;28;20545;-61
2021/12/27 11:13:30;;;;;;;0.85;0.60;;;4.80;99.90;;;;;;5055126;28;20064;-52
2021/12/27 11:15:56;;;;;;;0.75;0.60;;;4.90;99.90;;;;;;5058879;28;20051;-61
2021/12/27 11:18:22;;;;;;;0.63;0.50;;;4.90;99.90;;;;;;5056780;28;20090;-61
2021/12/27 11:20:56;;;;;;;1.15;0.75;;;5.00;99.90;;;;;;5057505;28;20044;-61
2021/12/27 11:23:23;;;;;;;1.08;0.40;;;5.10;99.90;;;;;;5056518;28;20427;-61
2021/12/27 11:26:03;;;;;;;1.17;0.68;;;5.20;99.90;;;;;;5057302;28;20037;-62
2021/12/27 11:28:29;;;;;;;0.55;0.52;;;5.20;99.90;;;;;;5054873;28;20126;-61
2021/12/27 11:30:56;;;;;;;0.50;0.50;;;5.30;99.90;;;;;;5056751;28;20124;-61
2021/12/27 11:33:24;;;;;;;0.93;0.60;;;5.30;99.90;;;;;;5055881;28;20088;-60
2021/12/27 11:35:59;;;;;;;1.48;1.38;;;5.30;99.90;;;;;;5057339;28;20047;-61
2021/12/27 11:38:31;;;;;;;0.60;0.50;;;5.40;99.90;;;;;;5054476;28;20507;-63
2021/12/27 11:40:58;;;;;;;3.83;0.50;;;5.40;99.90;;;;;;5055515;28;20040;-61
2021/12/27 11:43:24;;;;;;;1.30;0.50;;;5.40;99.90;;;;;;5053433;28;20052;-64
2021/12/27 11:45:54;;;;;;;0.57;0.40;;;5.40;99.90;;;;;;5057190;28;20041;-62
2021/12/27 11:48:23;;;;;;;1.45;0.30;;;5.20;99.90;;;;;;5055919;28;20488;-63
2021/12/27 11:51:07;;;;;;;0.70;0.40;;;5.30;99.90;;;;;;5055717;28;20124;-63
2021/12/27 11:53:48;;;;;;;0.43;0.43;;;5.40;99.90;;;;;;5053688;28;20089;-62
2021/12/27 11:56:39;;;;;;;1.13;0.60;;;5.30;99.90;;;;;;5053004;28;20079;-64
2021/12/27 11:59:23;;;;;;;1.20;0.40;;;5.40;99.90;;;;;;5050077;28;20104;-62
2021/12/27 12:01:57;;;;;;;0.73;0.40;;;5.40;99.90;;;;;;5053938;28;20044;-62
2021/12/27 12:04:41;;;;;;;0.50;0.35;;;5.40;99.90;;;;;;5059021;28;20052;-64
2021/12/27 12:07:26;;;;;;;0.50;0.50;;;5.40;99.90;;;;;;5042441;28;20152;-62
2021/12/27 12:09:55;;;;;;;0.85;0.45;;;5.40;99.90;;;;;;5058277;28;20049;-64
2021/12/27 12:12:20;;;;;;;1.85;0.40;;;5.40;99.90;;;;;;5051288;28;20072;-61
2021/12/27 12:14:53;;;;;;;0.52;0.43;;;5.40;99.90;;;;;;5063502;28;20451;-62
2021/12/27 12:17:37;;;;;;;2.67;0.63;;;5.50;99.90;;;;;;5044314;28;20065;-62
2021/12/27 12:20:04;;;;;;;1.25;0.90;;;5.50;99.90;;;;;;5066031;28;20047;-62
2021/12/27 12:22:37;;;;;;;0.45;0.40;;;5.50;99.90;;;;;;5055841;28;20064;-61
2021/12/27 12:25:25;;;;;;;0.60;0.60;;;5.50;99.90;;;;;;5068088;28;20044;-62
2021/12/27 12:28:11;;;;;;;0.60;0.60;;;5.40;99.90;;;;;;5036316;28;20053;-61
2021/12/27 12:30:45;;;;;;;1.40;0.90;;;5.30;99.90;;;;;;5048761;28;20037;-62
2021/12/27 12:33:14;;;;;;;2.72;0.90;;;5.30;99.90;;;;;;5051712;28;20036;-62
2021/12/27 12:35:46;;;;;;;1.65;0.80;;;5.10;99.90;;;;;;5058498;28;20088;-62
2021/12/27 12:38:24;;;;;;;2.35;0.90;;;5.00;99.90;;;;;;5058330;28;20037;-62
2021/12/27 12:41:09;;;;;;;1.52;0.90;;;4.90;99.90;;;;;;5054476;28;20049;-63
2021/12/27 12:43:47;;;;;;;2.45;1.60;;;4.90;99.90;;;;;;5056301;28;20052;-61
2021/12/27 12:46:28;;;;;;;2.05;0.90;;;4.90;99.90;;;;;;5055241;28;20068;-62
2021/12/27 12:49:02;;;;;;;0.98;0.70;;;5.00;99.90;;;;;;5056284;28;20088;-60
2021/12/27 12:51:46;;;;;;;1.48;0.80;;;5.00;99.90;;;;;;5053092;28;20129;-61
2021/12/27 12:54:21;;;;;;;0.95;0.80;;;5.00;99.90;;;;;;5058943;28;20041;-62
2021/12/27 12:56:59;;;;;;;0.90;0.80;;;5.10;99.90;;;;;;5055667;28;20124;-62
2021/12/27 12:59:44;;;;;;;1.45;0.68;;;5.00;99.90;;;;;;5063152;28;20279;-62
2021/12/27 13:02:30;;;;;;;0.60;0.60;;;5.00;99.90;;;;;;5049319;28;20118;-62
2021/12/27 13:05:00;;;;;;;0.77;0.73;;;5.00;99.90;;;;;;5064354;28;20056;-61
2021/12/27 13:07:48;;;;;;;1.90;0.95;;;4.90;99.90;;;;;;5054594;28;20316;-64
2021/12/27 13:10:27;;;;;;;1.60;0.70;;;4.90;99.90;;;;;;5054161;28;20048;-62